Time;durP1;ratioP1;P1;durP2;ratioP2;P2;SDS_P1;SDS_P2;PMS_P1;PMS_P2;Temp;Humidity;BMP_temperature;BMP_pressure;BME280_temperature;BME280_humidity;BME280_pressure;Samples;Min_cycle;Max_cycle;Signal;HPM_P1;HPM_P2
2022/07/15 00:01:02;;;;;;;1.23;0.10;;;;;;;12.31;48.88;102020.53;4962472;28;20380;-72
2022/07/15 00:03:28;;;;;;;5.38;0.35;;;;;;;12.28;48.93;102032.81;4953359;28;20046;-75
2022/07/15 00:05:53;;;;;;;2.90;0.10;;;;;;;12.15;49.25;102026.22;4937361;28;20062;-77
2022/07/15 00:08:19;;;;;;;4.30;0.22;;;;;;;12.06;49.37;102031.72;4961090;28;20054;-76
2022/07/15 00:10:44;;;;;;;4.50;0.20;;;;;;;12.04;49.65;102023.91;4957177;28;20041;-77
2022/07/15 00:13:10;;;;;;;8.10;1.20;;;;;;;12.07;49.61;102028.22;4954110;28;20046;-76
2022/07/15 00:15:36;;;;;;;3.53;0.15;;;;;;;12.16;49.66;102027.09;4963844;28;20504;-76
2022/07/15 00:18:03;;;;;;;2.78;0.45;;;;;;;12.07;50.29;102023.81;4953985;28;20039;-76
2022/07/15 00:20:33;;;;;;;6.10;0.20;;;;;;;12.20;50.04;102026.97;4940363;28;20657;-78
2022/07/15 00:23:01;;;;;;;2.00;0.30;;;;;;;12.11;50.70;102035.09;4952519;28;20074;-76
2022/07/15 00:25:26;;;;;;;6.57;0.43;;;;;;;11.87;51.01;102023.53;4957493;28;20039;-77
2022/07/15 00:28:12;;;;;;;4.32;0.30;;;;;;;11.83;52.12;102021.88;4949343;28;20110;-76
2022/07/15 00:30:40;;;;;;;3.67;0.30;;;;;;;11.54;52.82;102023.47;4953381;28;20050;-71
2022/07/15 00:33:07;;;;;;;5.07;0.20;;;;;;;11.72;53.08;102022.13;4951568;28;20063;-73
2022/07/15 00:35:34;;;;;;;5.35;0.30;;;;;;;11.86;52.33;102014.78;4953083;28;20034;-71
2022/07/15 00:38:01;;;;;;;1.55;0.30;;;;;;;11.98;52.69;102015.38;4949867;28;20206;-75
2022/07/15 00:40:27;;;;;;;2.58;0.43;;;;;;;11.86;52.69;102020.00;4947498;28;20477;-71
2022/07/15 00:42:53;;;;;;;2.55;0.22;;;;;;;12.05;52.70;102011.66;4946543;28;20042;-68
2022/07/15 00:45:23;;;;;;;2.13;0.32;;;;;;;11.98;52.71;102012.75;4955060;28;20347;-69
2022/07/15 00:47:54;;;;;;;5.50;0.38;;;;;;;12.08;52.60;102008.94;4957501;28;20043;-69
2022/07/15 00:50:25;;;;;;;4.45;0.28;;;;;;;12.02;52.84;102014.34;4957091;28;20038;-68
2022/07/15 00:52:57;;;;;;;11.13;0.82;;;;;;;11.98;52.82;102012.75;4950871;28;20136;-68
2022/07/15 00:55:24;;;;;;;5.97;0.25;;;;;;;11.83;53.23;102009.63;4954527;28;20053;-71
2022/07/15 00:57:55;;;;;;;5.50;0.28;;;;;;;12.04;52.91;102012.56;4941638;28;20046;-69
2022/07/15 01:00:21;;;;;;;4.55;0.50;;;;;;;12.00;52.77;102010.91;4949784;28;20400;-68
2022/07/15 01:02:50;;;;;;;2.67;0.20;;;;;;;12.05;52.74;102007.28;4948105;28;20068;-69
2022/07/15 01:05:18;;;;;;;2.53;0.45;;;;;;;11.98;52.72;101997.88;4963661;28;20057;-69
2022/07/15 01:07:45;;;;;;;4.78;0.20;;;;;;;11.83;52.82;102004.41;4944618;28;20063;-69
2022/07/15 01:10:10;;;;;;;4.00;0.30;;;;;;;11.85;53.17;101996.50;4943970;28;20092;-68
2022/07/15 01:12:40;;;;;;;3.50;0.30;;;;;;;11.81;52.99;102005.34;4945536;28;20039;-69
2022/07/15 01:15:08;;;;;;;7.00;1.08;;;;;;;11.76;52.62;102000.19;4952197;28;20704;-68
2022/07/15 01:17:34;;;;;;;3.03;0.20;;;;;;;11.71;52.77;101994.22;4952832;28;20047;-69
2022/07/15 01:20:00;;;;;;;6.15;0.50;;;;;;;11.67;52.95;101996.06;4942113;28;20427;-71
2022/07/15 01:22:31;;;;;;;2.33;0.20;;;;;;;11.59;53.21;102007.63;4959819;28;20631;-70
2022/07/15 01:24:56;;;;;;;3.45;0.15;;;;;;;11.59;53.11;102002.41;4949488;28;20035;-71
2022/07/15 01:27:26;;;;;;;4.47;0.20;;;;;;;11.50;52.66;101994.78;4954392;28;20041;-71
2022/07/15 01:29:52;;;;;;;4.97;0.30;;;;;;;11.30;53.40;101995.31;4957848;28;20062;-71
2022/07/15 01:32:19;;;;;;;4.93;0.85;;;;;;;11.35;52.96;101996.91;4949852;28;20867;-70
2022/07/15 01:34:48;;;;;;;7.22;0.25;;;;;;;11.24;53.08;101999.81;4958356;28;20092;-72
2022/07/15 01:37:15;;;;;;;3.05;0.20;;;;;;;11.18;53.49;102007.78;4952276;28;20637;-70
2022/07/15 01:39:45;;;;;;;5.45;0.15;;;;;;;11.18;53.22;102009.56;4960175;28;20084;-71
2022/07/15 01:42:11;;;;;;;1.85;0.10;;;;;;;11.12;52.97;102004.47;4950551;28;20046;-71
2022/07/15 01:44:37;;;;;;;2.10;0.20;;;;;;;11.11;53.19;102008.00;4952185;28;20034;-71
2022/07/15 01:47:03;;;;;;;2.28;0.10;;;;;;;10.91;52.98;102006.72;4961855;28;20100;-71
2022/07/15 01:49:32;;;;;;;0.93;0.30;;;;;;;10.98;53.03;102007.41;4953192;28;20034;-71
2022/07/15 01:52:09;;;;;;;4.78;0.20;;;;;;;10.96;52.81;102006.59;4948514;28;20045;-71
2022/07/15 01:54:36;;;;;;;1.02;0.30;;;;;;;10.88;52.87;102006.75;4944212;28;20580;-71
2022/07/15 01:57:03;;;;;;;3.47;0.10;;;;;;;10.78;53.00;102006.09;4944549;28;20035;-71
2022/07/15 01:59:32;;;;;;;1.63;0.10;;;;;;;10.74;52.96;102006.19;4952300;28;20419;-71
2022/07/15 02:01:58;;;;;;;5.50;0.47;;;;;;;10.70;52.85;102009.75;4945615;28;20053;-70
2022/07/15 02:04:25;;;;;;;0.63;0.10;;;;;;;10.66;53.19;102006.38;4945630;28;20059;-70
2022/07/15 02:06:51;;;;;;;4.50;0.40;;;;;;;10.53;53.03;102011.00;4961842;28;20059;-71
2022/07/15 02:09:19;;;;;;;2.70;0.17;;;;;;;10.58;53.00;102009.16;4964618;28;20027;-71
2022/07/15 02:11:47;;;;;;;1.23;0.13;;;;;;;10.61;52.79;102009.06;4964646;28;20054;-70
2022/07/15 02:14:13;;;;;;;5.05;0.28;;;;;;;10.59;52.55;102008.28;4953225;28;20035;-70
2022/07/15 02:16:39;;;;;;;2.35;0.75;;;;;;;10.64;52.90;102009.03;4967084;28;20049;-71
2022/07/15 02:19:09;;;;;;;3.45;0.10;;;;;;;10.73;52.69;102007.94;4964301;28;20041;-70
2022/07/15 02:21:36;;;;;;;2.05;0.10;;;;;;;10.90;52.53;102004.97;4948490;28;20070;-69
2022/07/15 02:24:02;;;;;;;1.42;0.17;;;;;;;11.02;51.95;102009.06;4948633;28;20034;-69
2022/07/15 02:26:27;;;;;;;5.47;0.20;;;;;;;11.02;51.94;102003.84;4965922;28;20172;-69
2022/07/15 02:28:55;;;;;;;4.03;0.15;;;;;;;11.11;51.73;102013.22;4959286;28;20041;-71
2022/07/15 02:31:23;;;;;;;1.48;0.10;;;;;;;11.27;51.51;102008.47;4965285;28;20110;-71
2022/07/15 02:33:49;;;;;;;1.85;0.10;;;;;;;11.31;50.76;102015.31;4946869;28;20054;-71
2022/07/15 02:36:14;;;;;;;8.75;0.25;;;;;;;11.40;50.71;102015.97;4946914;28;20034;-70
2022/07/15 02:38:41;;;;;;;2.55;0.05;;;;;;;11.25;50.04;102016.34;4964238;28;20049;-71
2022/07/15 02:41:11;;;;;;;1.95;0.00;;;;;;;11.35;50.40;102012.63;4947554;28;20027;-70
2022/07/15 02:43:37;;;;;;;0.60;0.13;;;;;;;11.37;50.13;102015.19;4946576;28;20081;-70
2022/07/15 02:46:03;;;;;;;1.65;0.20;;;;;;;11.41;50.10;102016.81;4961505;28;20030;-70
2022/07/15 02:48:31;;;;;;;0.82;0.10;;;;;;;11.26;50.04;102020.69;4946793;28;20035;-70
2022/07/15 02:50:57;;;;;;;0.82;0.20;;;;;;;11.29;49.43;102025.84;4949922;28;20031;-70
2022/07/15 02:53:28;;;;;;;3.17;0.50;;;;;;;11.35;49.80;102022.22;4962957;28;20125;-70
2022/07/15 02:55:58;;;;;;;0.43;0.15;;;;;;;11.39;49.42;102022.09;4961393;28;20054;-71
2022/07/15 02:58:23;;;;;;;4.60;0.32;;;;;;;11.33;49.65;102024.88;4951816;28;20170;-71
2022/07/15 03:00:49;;;;;;;3.58;0.63;;;;;;;11.43;49.68;102026.34;4948301;28;20031;-71
2022/07/15 03:03:14;;;;;;;3.17;0.15;;;;;;;11.52;49.26;102032.28;4962815;28;20039;-71
2022/07/15 03:05:40;;;;;;;2.65;0.52;;;;;;;11.51;49.54;102031.41;4947133;28;20033;-73
2022/07/15 03:08:08;;;;;;;0.40;0.00;;;;;;;11.45;49.21;102026.31;4949186;28;20047;-71
2022/07/15 03:10:34;;;;;;;4.38;1.48;;;;;;;11.42;49.51;102029.88;4960524;28;20513;-71
2022/07/15 03:13:01;;;;;;;1.27;0.08;;;;;;;11.34;49.24;102021.34;4933411;28;20515;-72
2022/07/15 03:15:27;;;;;;;1.75;0.52;;;;;;;11.40;49.60;102021.22;4945565;28;20134;-71
2022/07/15 03:17:52;;;;;;;3.58;0.10;;;;;;;11.28;49.34;102020.66;4952347;28;20416;-71
2022/07/15 03:20:18;;;;;;;1.80;0.50;;;;;;;11.17;49.69;102023.53;4958959;28;20042;-71
2022/07/15 03:22:47;;;;;;;3.95;0.75;;;;;;;11.18;49.74;102020.03;4954747;28;20093;-70
2022/07/15 03:25:12;;;;;;;1.77;0.30;;;;;;;11.17;50.14;102023.53;4953753;28;20543;-71
2022/07/15 03:27:38;;;;;;;1.50;0.10;;;;;;;11.11;49.95;102024.53;4946170;28;20110;-71
2022/07/15 03:30:07;;;;;;;1.05;0.10;;;;;;;11.07;50.53;102017.66;4934519;28;20130;-70
2022/07/15 03:32:32;;;;;;;1.48;0.10;;;;;;;11.14;50.64;102028.84;4961508;28;20043;-71
2022/07/15 03:35:01;;;;;;;3.35;0.10;;;;;;;11.18;50.82;102027.88;4944940;28;20057;-70
2022/07/15 03:37:30;;;;;;;;;;;;;;;11.25;50.47;102030.28;4968383;28;20398;-70
2022/07/15 03:39:56;;;;;;;4.20;0.13;;;;;;;11.39;50.45;102026.47;4949922;28;19918;-70
2022/07/15 03:42:22;;;;;;;5.63;0.57;;;;;;;11.43;50.19;102031.59;4952714;28;20117;-71
2022/07/15 03:44:48;;;;;;;2.05;0.32;;;;;;;11.48;50.37;102026.25;4944312;28;20459;-75
2022/07/15 03:47:13;;;;;;;0.82;0.10;;;;;;;11.43;50.21;102028.13;4951607;28;20473;-71
2022/07/15 03:49:39;;;;;;;1.17;0.10;;;;;;;11.45;49.91;102034.19;4950627;28;20045;-67
2022/07/15 03:52:05;;;;;;;0.52;0.22;;;;;;;11.33;50.17;102040.59;4960091;28;20035;-70
2022/07/15 03:54:34;;;;;;;1.90;0.10;;;;;;;11.20;50.69;102033.94;4942693;28;20027;-70
2022/07/15 03:57:01;;;;;;;2.15;0.15;;;;;;;11.22;50.86;102043.47;4946871;28;20507;-70
2022/07/15 03:59:27;;;;;;;1.33;0.10;;;;;;;11.35;50.87;102048.38;4962550;28;20095;-72
2022/07/15 04:01:53;;;;;;;5.82;0.13;;;;;;;11.52;50.99;102045.34;4945052;28;20273;-70
2022/07/15 04:04:18;;;;;;;4.30;0.05;;;;;;;11.67;50.51;102040.59;4949952;28;20026;-68
2022/07/15 04:06:44;;;;;;;2.80;0.10;;;;;;;11.82;50.35;102041.97;4945144;28;20093;-68
2022/07/15 04:09:10;;;;;;;2.72;0.43;;;;;;;11.86;50.33;102043.59;4955825;28;20402;-68
2022/07/15 04:11:36;;;;;;;7.88;0.30;;;;;;;11.84;49.88;102041.91;4958615;28;20038;-69
2022/07/15 04:14:02;;;;;;;1.45;0.10;;;;;;;11.82;49.86;102049.84;4943311;28;20041;-68
2022/07/15 04:16:30;;;;;;;0.38;0.10;;;;;;;11.96;49.93;102048.63;4951513;28;20034;-68
2022/07/15 04:19:04;;;;;;;1.45;0.10;;;;;;;11.64;48.97;102045.03;4961892;28;20039;-71
2022/07/15 04:21:30;;;;;;;3.40;0.40;;;;;;;11.73;48.58;102049.16;4959698;28;20318;-70
2022/07/15 04:23:57;;;;;;;5.85;0.10;;;;;;;11.98;48.13;102055.53;4949561;28;20491;-65
2022/07/15 04:26:23;;;;;;;1.80;0.20;;;;;;;12.03;47.58;102055.41;4961889;28;20050;-66
2022/07/15 04:28:48;;;;;;;3.88;0.30;;;;;;;12.20;46.75;102060.16;4937478;28;20074;-66
2022/07/15 04:31:15;;;;;;;2.92;0.10;;;;;;;12.34;46.45;102062.41;4960903;28;20031;-66
2022/07/15 04:33:51;;;;;;;0.73;0.30;;;;;;;12.25;46.67;102059.13;4939375;28;20038;-67
2022/07/15 04:36:17;;;;;;;1.65;0.10;;;;;;;12.28;46.28;102059.03;4950521;28;20031;-68
2022/07/15 04:38:43;;;;;;;2.00;0.15;;;;;;;12.10;46.40;102061.34;4960002;28;20042;-68
2022/07/15 04:41:09;;;;;;;1.70;0.10;;;;;;;12.23;46.22;102066.19;4951537;28;21421;-68
2022/07/15 04:43:34;;;;;;;3.90;0.00;;;;;;;12.12;45.96;102065.63;4943778;28;20251;-67
2022/07/15 04:46:00;;;;;;;2.35;0.45;;;;;;;12.37;45.62;102067.56;4958395;28;22614;-67
2022/07/15 04:51:12;;;;;;;0.85;0.10;;;;;;;12.48;45.46;102075.97;4952911;28;20390;-66
2022/07/15 04:53:38;;;;;;;3.20;0.22;;;;;;;12.46;45.87;102076.00;4948129;28;20461;-74
2022/07/15 04:56:04;;;;;;;4.05;0.40;;;;;;;12.56;46.05;102081.84;4943587;28;20031;-72
2022/07/15 04:58:32;;;;;;;3.22;0.10;;;;;;;12.61;46.52;102085.19;4961779;28;20045;-69
2022/07/15 05:01:03;;;;;;;0.77;0.10;;;;;;;12.67;46.68;102086.78;4935625;28;20065;-69
2022/07/15 05:03:29;;;;;;;3.28;0.40;;;;;;;12.80;46.63;102089.91;4959945;28;20145;-69
2022/07/15 05:05:57;;;;;;;6.82;0.35;;;;;;;12.86;46.79;102089.75;4960814;28;20054;-69
2022/07/15 05:08:31;;;;;;;4.45;0.32;;;;;;;12.93;46.69;102087.78;4945109;28;20671;-72
2022/07/15 05:10:56;;;;;;;5.45;0.10;;;;;;;13.09;46.78;102089.03;4953762;28;20214;-73
2022/07/15 05:13:22;;;;;;;3.50;0.10;;;;;;;13.06;46.56;102095.22;4943410;28;20121;-69
2022/07/15 05:15:48;;;;;;;4.28;0.10;;;;;;;13.02;47.17;102098.84;4936394;28;20043;-70
2022/07/15 05:18:19;;;;;;;4.75;0.65;;;;;;;12.84;48.09;102099.44;4958597;28;20065;-68
2022/07/15 05:20:45;;;;;;;5.55;0.68;;;;;;;12.74;48.69;102106.72;4942767;28;20428;-68
2022/07/15 05:23:16;;;;;;;2.05;0.10;;;;;;;12.61;49.46;102100.94;4956588;28;20031;-69
2022/07/15 05:25:46;;;;;;;8.10;0.40;;;;;;;12.57;49.61;102096.69;4958764;28;20441;-69
2022/07/15 05:28:11;;;;;;;6.82;0.60;;;;;;;12.57;50.27;102107.16;4951830;28;20142;-68
2022/07/15 05:30:39;;;;;;;1.38;0.65;;;;;;;12.56;49.46;102108.09;4960624;28;20101;-69
2022/07/15 05:33:07;;;;;;;1.55;0.20;;;;;;;12.72;49.59;102112.91;4957130;28;20053;-69
2022/07/15 05:35:33;;;;;;;7.43;0.10;;;;;;;12.72;49.78;102112.91;4960377;28;20662;-70
2022/07/15 05:37:58;;;;;;;2.15;0.22;;;;;;;12.69;49.87;102112.09;4947573;28;22466;-70
2022/07/15 05:40:29;;;;;;;4.25;0.17;;;;;;;12.67;49.75;102118.28;4942259;28;20022;-70
2022/07/15 05:42:55;;;;;;;6.57;0.10;;;;;;;12.55;49.77;102121.22;4941376;28;20071;-72
2022/07/15 05:45:20;;;;;;;4.35;0.20;;;;;;;12.60;49.57;102127.19;4951128;28;20104;-73
2022/07/15 05:47:54;;;;;;;2.72;0.30;;;;;;;12.08;50.63;102125.09;4951408;28;20062;-72
2022/07/15 05:50:23;;;;;;;0.98;0.17;;;;;;;11.93;51.48;102129.88;4959414;28;20373;-73
2022/07/15 05:52:49;;;;;;;0.40;0.10;;;;;;;12.25;51.05;102137.78;4962526;28;20045;-72
2022/07/15 05:55:18;;;;;;;2.47;0.10;;;;;;;12.19;51.56;102126.59;4941836;28;20082;-72
2022/07/15 05:57:45;;;;;;;3.03;0.28;;;;;;;12.02;52.43;102125.28;4944631;28;20058;-72
2022/07/15 06:00:12;;;;;;;4.05;0.20;;;;;;;12.24;52.47;102114.22;4945130;28;20034;-72
2022/07/15 06:02:42;;;;;;;6.45;0.13;;;;;;;12.37;51.69;102112.13;4947692;28;20081;-73
2022/07/15 06:05:15;;;;;;;4.20;0.30;;;;;;;12.65;51.11;102125.31;4943123;28;20066;-72
2022/07/15 06:07:45;;;;;;;2.20;0.33;;;;;;;12.94;50.58;102132.38;4944461;28;20043;-72
2022/07/15 06:10:13;;;;;;;0.90;0.22;;;;;;;13.08;51.23;102132.78;4959052;28;20072;-73
2022/07/15 06:12:39;;;;;;;4.10;0.10;;;;;;;14.88;46.88;102131.06;4935158;28;20106;-73
2022/07/15 06:15:06;;;;;;;2.88;0.10;;;;;;;15.22;45.55;102135.06;4959060;28;20041;-72
2022/07/15 06:17:31;;;;;;;4.25;0.10;;;;;;;15.34;44.82;102139.84;4952731;28;20213;-72
2022/07/15 06:19:59;;;;;;;1.73;0.20;;;;;;;15.17;45.12;102138.72;4947958;28;20556;-73
2022/07/15 06:22:24;;;;;;;2.13;0.10;;;;;;;15.21;44.19;102134.16;4944405;28;20035;-73
2022/07/15 06:24:50;;;;;;;3.05;0.20;;;;;;;15.61;44.52;102131.72;4956816;28;20034;-73
2022/07/15 06:27:21;;;;;;;3.38;0.15;;;;;;;15.98;41.81;102131.88;4943828;28;20304;-72
2022/07/15 06:29:48;;;;;;;5.53;0.10;;;;;;;16.00;43.17;102139.78;4958769;28;20031;-72
2022/07/15 06:32:14;;;;;;;1.33;0.10;;;;;;;15.77;43.05;102138.94;4959635;28;20046;-72
2022/07/15 06:34:39;;;;;;;0.50;0.10;;;;;;;15.78;42.44;102139.78;4958848;28;20564;-73
2022/07/15 06:37:05;;;;;;;0.70;0.20;;;;;;;15.16;42.88;102142.25;4948947;28;20078;-73
2022/07/15 06:39:31;;;;;;;0.10;0.00;;;;;;;15.69;41.82;102145.47;4960302;28;20515;-71
2022/07/15 06:41:57;;;;;;;1.95;0.00;;;;;;;15.41;43.56;102148.34;4950269;28;20135;-74
2022/07/15 06:44:23;;;;;;;1.55;0.00;;;;;;;15.53;41.78;102135.53;4950416;28;20540;-72
2022/07/15 06:46:54;;;;;;;7.15;0.10;;;;;;;15.58;42.02;102133.56;4950283;28;20058;-74
2022/07/15 06:49:19;;;;;;;2.03;0.10;;;;;;;16.07;41.65;102143.00;4950271;28;20081;-74
2022/07/15 06:51:47;;;;;;;3.97;0.30;;;;;;;19.93;34.56;102129.41;4946875;28;20066;-73
2022/07/15 06:54:18;;;;;;;1.33;0.10;;;;;;;20.81;32.22;102138.16;4947906;28;20624;-72
2022/07/15 06:56:46;;;;;;;2.92;0.17;;;;;;;19.81;33.64;102131.00;4964128;28;20249;-72
2022/07/15 06:59:11;;;;;;;3.45;0.85;;;;;;;19.41;34.04;102128.03;4963859;28;20031;-72
2022/07/15 07:01:37;;;;;;;6.43;0.10;;;;;;;19.77;34.70;102126.84;4945052;28;20030;-74
2022/07/15 07:04:04;;;;;;;5.53;0.35;;;;;;;21.05;31.69;102133.09;4947199;28;20694;-72
2022/07/15 07:06:30;;;;;;;2.65;0.03;;;;;;;20.89;30.05;102127.06;4946458;28;20041;-72
2022/07/15 07:08:55;;;;;;;3.08;0.10;;;;;;;20.02;32.70;102122.72;4945404;28;20043;-72
2022/07/15 07:11:21;;;;;;;3.47;0.10;;;;;;;17.93;34.39;102135.13;4955874;28;20348;-72
2022/07/15 07:13:48;;;;;;;2.50;0.10;;;;;;;18.43;34.48;102133.44;4949316;28;20050;-73
2022/07/15 07:16:14;;;;;;;1.20;0.10;;;;;;;18.47;34.58;102135.88;4952766;28;20039;-72
2022/07/15 07:18:40;;;;;;;3.38;0.15;;;;;;;18.44;34.74;102128.06;4954101;28;20510;-72
2022/07/15 07:21:06;;;;;;;4.90;0.20;;;;;;;17.68;34.88;102124.97;4952595;28;20208;-72
2022/07/15 07:23:31;;;;;;;3.38;0.20;;;;;;;17.47;35.06;102131.28;4951959;28;20113;-73
2022/07/15 07:25:58;;;;;;;3.88;0.20;;;;;;;16.72;36.67;102119.88;4946310;28;20145;-71
2022/07/15 07:28:23;;;;;;;1.92;0.70;;;;;;;16.29;38.04;102119.19;4952029;28;20069;-73
2022/07/15 07:30:54;;;;;;;2.47;0.10;;;;;;;16.88;37.96;102117.41;4958431;28;21031;-72
2022/07/15 07:33:20;;;;;;;3.10;0.10;;;;;;;16.79;37.46;102122.16;4954108;28;20065;-73
2022/07/15 07:35:46;;;;;;;2.33;0.20;;;;;;;17.19;36.75;102125.56;4957488;28;20043;-72
2022/07/15 07:38:12;;;;;;;0.90;0.30;;;;;;;16.96;37.15;102124.03;4949095;28;20054;-71
2022/07/15 07:40:37;;;;;;;3.53;0.43;;;;;;;16.66;37.15;102121.00;4957211;28;20057;-72
2022/07/15 07:43:03;;;;;;;1.88;0.08;;;;;;;16.78;37.77;102125.75;4961520;28;20073;-73
2022/07/15 07:45:29;;;;;;;7.85;0.65;;;;;;;16.14;38.45;102126.84;4955739;28;21153;-74
2022/07/15 07:47:58;;;;;;;6.18;0.30;;;;;;;15.28;40.40;102132.19;4952454;28;20042;-72
2022/07/15 07:50:23;;;;;;;4.93;0.32;;;;;;;15.01;41.24;102140.22;4955174;28;20067;-72
2022/07/15 07:52:49;;;;;;;4.45;0.57;;;;;;;14.74;42.41;102145.59;4961650;28;20137;-72
2022/07/15 07:55:14;;;;;;;1.55;0.43;;;;;;;14.32;43.14;102150.63;4949820;28;20038;-72
2022/07/15 07:57:52;;;;;;;2.15;0.60;;;;;;;13.49;46.08;102158.66;4947258;28;20133;-72
2022/07/15 08:00:18;;;;;;;0.30;0.00;;;;;;;12.76;48.74;102159.13;4952187;28;20139;-73
2022/07/15 08:02:44;;;;;;;2.72;0.25;;;;;;;13.06;48.27;102170.50;4952400;28;20642;-73
2022/07/15 08:05:11;;;;;;;1.02;0.10;;;;;;;13.10;48.34;102159.84;4951108;28;20034;-72
2022/07/15 08:07:36;;;;;;;2.13;0.40;;;;;;;13.66;47.34;102158.16;4952413;28;20057;-73
2022/07/15 08:10:06;;;;;;;0.85;0.08;;;;;;;14.08;45.53;102147.13;4951358;28;20111;-73
2022/07/15 08:12:32;;;;;;;1.90;0.08;;;;;;;14.57;44.23;102142.78;4953749;28;20043;-73
2022/07/15 08:14:58;;;;;;;1.48;0.08;;;;;;;15.29;43.04;102136.53;4946806;28;20076;-74
2022/07/15 08:17:23;;;;;;;2.50;0.00;;;;;;;15.34;41.93;102139.84;4954226;28;20525;-73
2022/07/15 08:19:49;;;;;;;1.75;0.00;;;;;;;15.05;42.30;102141.81;4953648;28;20494;-72
2022/07/15 08:22:15;;;;;;;0.93;0.00;;;;;;;14.91;42.79;102147.63;4950576;28;20651;-73
2022/07/15 08:24:41;;;;;;;1.60;0.05;;;;;;;15.10;42.21;102133.72;4953357;28;20026;-72
2022/07/15 08:27:08;;;;;;;1.73;0.00;;;;;;;15.94;40.46;102140.00;4952792;28;20043;-74
2022/07/15 08:29:34;;;;;;;1.85;0.10;;;;;;;16.26;40.33;102138.63;4944342;28;20062;-72
2022/07/15 08:32:00;;;;;;;3.95;0.25;;;;;;;16.47;38.80;102138.63;4945754;28;20050;-74
2022/07/15 08:34:25;;;;;;;1.05;0.45;;;;;;;17.10;39.80;102139.22;4954313;28;20061;-73
2022/07/15 08:36:51;;;;;;;1.20;0.00;;;;;;;18.02;37.15;102128.50;4945770;28;20127;-74
2022/07/15 08:39:16;;;;;;;0.30;0.00;;;;;;;18.32;35.53;102135.81;4948628;28;20035;-74
2022/07/15 08:41:42;;;;;;;0.68;0.10;;;;;;;17.43;38.31;102141.16;4949878;28;20042;-73
2022/07/15 08:44:07;;;;;;;1.55;0.10;;;;;;;16.21;41.47;102151.16;4951997;28;20041;-73
2022/07/15 08:46:34;;;;;;;0.82;0.20;;;;;;;15.45;41.39;102155.22;4952411;28;20035;-71
2022/07/15 08:49:12;;;;;;;1.00;0.00;;;;;;;15.49;42.32;102154.19;4949987;28;20027;-73
2022/07/15 08:51:43;;;;;;;1.35;0.10;;;;;;;15.29;41.94;102147.94;4947751;28;20665;-73
2022/07/15 08:54:08;;;;;;;3.90;0.28;;;;;;;15.33;42.45;102143.41;4942666;28;20153;-72
2022/07/15 08:56:35;;;;;;;1.98;0.10;;;;;;;15.27;42.85;102146.28;4960277;28;20467;-72
2022/07/15 08:59:02;;;;;;;0.90;0.20;;;;;;;15.18;42.93;102145.69;4947585;28;20037;-74
2022/07/15 09:01:28;;;;;;;2.53;0.00;;;;;;;16.11;41.01;102140.16;4953853;28;20129;-72
2022/07/15 09:03:55;;;;;;;1.70;0.20;;;;;;;16.65;39.98;102143.06;4954965;28;20198;-72
2022/07/15 09:06:35;;;;;;;5.18;1.13;;;;;;;19.37;34.25;102130.91;4950691;28;20146;-72
2022/07/15 09:09:23;;;;;;;1.50;0.13;;;;;;;19.38;32.89;102133.50;4930443;28;20836;-72
2022/07/15 09:12:03;;;;;;;2.05;0.03;;;;;;;19.80;32.51;102134.59;4931548;28;20047;-72
2022/07/15 09:14:30;;;;;;;2.00;0.22;;;;;;;18.65;33.84;102144.59;4951515;28;20481;-72
2022/07/15 09:17:05;;;;;;;3.20;0.38;;;;;;;17.72;35.22;102145.03;4955024;28;20043;-74
2022/07/15 09:20:01;;;;;;;1.95;0.10;;;;;;;17.43;34.90;102146.44;4964832;28;20069;-72
2022/07/15 09:22:29;;;;;;;6.75;0.20;;;;;;;17.27;35.70;102151.63;4947032;28;20532;-74
2022/07/15 09:25:07;;;;;;;2.33;0.20;;;;;;;19.48;32.09;102145.28;4950452;28;20035;-74
2022/07/15 09:27:38;;;;;;;1.50;0.03;;;;;;;18.85;32.24;102151.47;4943721;28;20108;-74
2022/07/15 09:33:38;;;;;;;0.43;0.10;;;;;;;16.47;36.46;102154.44;4949477;28;20046;-72
2022/07/15 09:36:06;;;;;;;1.17;0.10;;;;;;;17.13;36.20;102151.41;4946018;28;20603;-71
2022/07/15 09:38:44;;;;;;;4.00;0.17;;;;;;;18.71;33.99;102143.41;4954736;28;20043;-72
2022/07/15 09:41:30;;;;;;;0.40;0.10;;;;;;;18.49;33.90;102149.00;4957304;28;21488;-72
2022/07/15 09:44:03;;;;;;;4.60;0.00;;;;;;;18.71;33.54;102145.19;4940299;28;20085;-72
2022/07/15 09:46:49;;;;;;;2.40;0.00;;;;;;;17.61;35.68;102148.22;4940227;28;20044;-73
2022/07/15 09:49:17;;;;;;;4.45;0.25;;;;;;;18.56;34.79;102149.53;4958598;28;20379;-73
2022/07/15 09:51:53;;;;;;;3.10;0.20;;;;;;;18.28;34.65;102140.44;4948871;28;20046;-73
2022/07/15 09:54:18;;;;;;;2.13;0.10;;;;;;;18.78;34.85;102152.72;4950012;28;20467;-71
2022/07/15 09:56:46;;;;;;;2.60;0.03;;;;;;;18.21;34.64;102139.03;4939175;28;20034;-72
2022/07/15 09:59:11;;;;;;;2.80;0.30;;;;;;;18.51;35.36;102155.06;4949855;28;20035;-73
2022/07/15 10:01:37;;;;;;;1.55;0.10;;;;;;;18.36;35.00;102154.09;4952306;28;20045;-73
2022/07/15 10:04:04;;;;;;;0.20;0.00;;;;;;;18.54;35.16;102154.94;4945635;28;20495;-74
2022/07/15 10:06:35;;;;;;;1.90;0.10;;;;;;;18.55;34.12;102148.69;4951349;28;20038;-72
2022/07/15 10:09:01;;;;;;;2.78;0.13;;;;;;;19.27;33.37;102144.69;4958053;28;20237;-71
2022/07/15 10:11:28;;;;;;;1.08;0.05;;;;;;;18.97;33.84;102149.09;4950143;28;20141;-74
2022/07/15 10:14:15;;;;;;;3.40;0.20;;;;;;;18.73;34.42;102151.28;4945423;28;20053;-73
2022/07/15 10:17:02;;;;;;;0.70;0.00;;;;;;;19.15;33.55;102142.75;4940113;28;20050;-72
2022/07/15 10:19:39;;;;;;;3.35;0.20;;;;;;;19.61;33.73;102144.59;4942922;28;20023;-72
2022/07/15 10:22:28;;;;;;;1.60;0.10;;;;;;;19.38;33.45;102138.78;4949614;28;20047;-72
2022/07/15 10:25:12;;;;;;;0.90;0.10;;;;;;;18.56;33.90;102149.53;4957843;28;20286;-73
2022/07/15 10:28:22;;;;;;;4.40;0.63;;;;;;;18.69;33.99;102145.28;4943175;28;20066;-72
2022/07/15 10:31:18;;;;;;;1.25;0.10;;;;;;;18.60;35.20;102148.44;4948702;28;20729;-72
2022/07/15 10:34:02;;;;;;;1.38;0.10;;;;;;;18.38;35.67;102138.97;4985279;23;20091;-69
2022/07/15 10:36:45;;;;;;;1.40;0.20;;;;;;;17.29;37.86;102149.78;4982149;28;20057;-67
2022/07/15 10:39:12;;;;;;;2.03;0.38;;;;;;;17.54;37.60;102154.72;4980233;28;20517;-69
2022/07/15 10:41:52;;;;;;;3.13;0.13;;;;;;;17.12;41.08;102166.41;4960242;28;20073;-69
2022/07/15 10:44:19;;;;;;;3.05;0.10;;;;;;;16.18;42.23;102153.94;4984878;28;20038;-69
2022/07/15 10:46:44;;;;;;;0.82;0.00;;;;;;;16.63;43.17;102144.91;4982235;28;20154;-70
2022/07/15 10:49:10;;;;;;;3.22;0.20;;;;;;;17.94;42.91;102135.97;4963684;28;20514;-69
2022/07/15 10:51:35;;;;;;;1.23;0.08;;;;;;;18.54;38.16;102141.69;4967897;28;20055;-68
2022/07/15 10:54:09;;;;;;;1.15;0.10;;;;;;;18.23;34.55;102132.72;4981858;28;20049;-67
2022/07/15 10:56:40;;;;;;;2.28;0.10;;;;;;;19.29;33.05;102124.25;4970230;28;20070;-68
2022/07/15 10:59:13;;;;;;;2.17;0.10;;;;;;;20.02;32.75;102120.91;4955077;28;20743;-67
2022/07/15 11:01:47;;;;;;;4.38;0.10;;;;;;;18.82;34.05;102129.56;4957027;28;20050;-68
2022/07/15 11:04:24;;;;;;;2.42;0.20;;;;;;;18.75;36.35;102129.06;4949182;28;20038;-69
2022/07/15 11:07:07;;;;;;;2.03;0.00;;;;;;;17.49;36.47;102140.03;4966456;28;20076;-68
2022/07/15 11:09:53;;;;;;;0.35;0.00;;;;;;;17.44;36.96;102145.50;4958103;28;20038;-68
2022/07/15 11:12:20;;;;;;;2.13;0.10;;;;;;;17.43;38.28;102141.16;4951966;28;20050;-68
2022/07/15 11:14:58;;;;;;;0.45;0.08;;;;;;;17.60;38.00;102138.56;4954507;28;20037;-68
2022/07/15 11:17:33;;;;;;;1.48;0.05;;;;;;;17.54;38.77;102144.16;4957268;28;20047;-68
2022/07/15 11:20:00;;;;;;;1.52;0.10;;;;;;;17.88;40.29;102147.75;4973041;28;20567;-66
2022/07/15 11:22:27;;;;;;;0.90;0.10;;;;;;;17.27;40.90;102154.28;4956230;28;21183;-67
2022/07/15 11:24:54;;;;;;;1.40;0.10;;;;;;;18.04;40.00;102146.00;4956456;28;20084;-67
2022/07/15 11:27:24;;;;;;;1.00;0.10;;;;;;;18.30;38.70;102150.94;4952397;28;20053;-67
2022/07/15 11:29:51;;;;;;;2.67;0.17;;;;;;;17.55;40.56;102159.06;4956968;28;20042;-67
2022/07/15 11:32:20;;;;;;;1.77;0.45;;;;;;;17.10;42.40;102162.13;4951650;28;20116;-67
2022/07/15 11:34:55;;;;;;;1.02;0.10;;;;;;;16.23;43.80;102159.88;4973043;28;20065;-66
2022/07/15 11:37:32;;;;;;;1.33;0.10;;;;;;;15.79;46.28;102165.22;4954274;28;20053;-67